Time;durP1;ratioP1;P1;durP2;ratioP2;P2;SDS_P1;SDS_P2;PMS_P1;PMS_P2;Temp;Humidity;BMP_temperature;BMP_pressure;BME280_temperature;BME280_humidity;BME280_pressure;Samples;Min_cycle;Max_cycle;Signal;HPM_P1;HPM_P2
2021/04/28 00:00:57;;;;;;;10.65;5.70;;;;;;;4.31;61.92;99911.08;1753213;81;21563;-60
2021/04/28 00:03:25;;;;;;;9.88;5.17;;;;;;;4.34;61.87;99908.00;1688532;83;22257;-60
2021/04/28 00:05:53;;;;;;;9.80;5.95;;;;;;;4.38;61.77;99909.22;1767348;80;21557;-61
2021/04/28 00:08:21;;;;;;;8.60;5.50;;;;;;;4.43;61.68;99914.75;1758506;80;21156;-60
2021/04/28 00:10:48;;;;;;;7.90;6.08;;;;;;;4.46;61.64;99911.67;1720070;82;21153;-60
2021/04/28 00:13:17;;;;;;;10.58;6.42;;;;;;;4.48;61.58;99912.81;1701732;84;21191;-59
2021/04/28 00:15:49;;;;;;;8.98;5.62;;;;;;;4.49;61.57;99909.13;1679220;84;21249;-61
2021/04/28 00:18:18;;;;;;;10.90;6.55;;;;;;;4.50;61.59;99910.77;1675602;84;21236;-60
2021/04/28 00:20:47;;;;;;;5.72;5.10;;;;;;;4.52;61.58;99914.03;1679592;84;21192;-59
2021/04/28 00:23:15;;;;;;;8.43;6.33;;;;;;;4.52;61.55;99912.70;1679178;84;21021;-60
2021/04/28 00:25:43;;;;;;;8.83;6.33;;;;;;;4.53;61.48;99917.83;1679337;84;21204;-60
2021/04/28 00:28:11;;;;;;;6.85;5.10;;;;;;;4.54;61.44;99914.66;1733942;81;21713;-58
2021/04/28 00:30:39;;;;;;;12.43;7.08;;;;;;;4.54;61.44;99914.66;1705514;83;21205;-60
2021/04/28 00:33:07;;;;;;;8.50;6.03;;;;;;;4.54;61.43;99917.33;1658945;85;21665;-60
2021/04/28 00:35:34;;;;;;;8.28;5.60;;;;;;;4.52;61.40;99918.84;1693798;84;21169;-59
2021/04/28 00:38:03;;;;;;;7.12;5.45;;;;;;;4.53;61.40;99918.34;1720871;83;21086;-59
2021/04/28 00:40:33;;;;;;;8.35;6.37;;;;;;;4.54;61.39;99923.98;1725227;82;22556;-60
2021/04/28 00:43:01;;;;;;;7.50;5.42;;;;;;;4.55;61.41;99918.97;1678825;82;21213;-58
2021/04/28 00:45:29;;;;;;;7.30;5.35;;;;;;;4.56;61.40;99920.08;1669766;84;21249;-59
2021/04/28 00:48:00;;;;;;;8.33;5.67;;;;;;;4.56;61.37;99925.40;1679163;84;21169;-60
2021/04/28 00:50:34;;;;;;;9.13;5.45;;;;;;;4.57;61.36;99923.05;1705860;83;21222;-59
2021/04/28 00:53:03;;;;;;;7.20;5.03;;;;;;;4.59;61.42;99926.85;1702640;84;21450;-60
2021/04/28 00:55:32;;;;;;;6.70;5.25;;;;;;;4.58;61.42;99926.03;1697904;83;21077;-59
2021/04/28 00:58:01;;;;;;;8.00;5.05;;;;;;;4.60;61.26;99923.17;1697990;83;21014;-61
2021/04/28 01:00:29;;;;;;;10.72;5.45;;;;;;;4.61;61.20;99924.78;1699948;82;21075;-59
2021/04/28 01:02:57;;;;;;;8.08;5.12;;;;;;;4.60;61.14;99924.50;1721575;82;21142;-60
2021/04/28 01:05:25;;;;;;;6.28;4.70;;;;;;;4.61;61.04;99929.60;1697793;83;21226;-59
2021/04/28 01:07:54;;;;;;;9.60;5.22;;;;;;;4.62;60.93;99928.59;1668317;84;21159;-59
2021/04/28 01:10:33;;;;;;;10.65;7.67;;;;;;;4.62;60.90;99925.09;1698999;82;21161;-61
2021/04/28 01:13:05;;;;;;;9.33;5.95;;;;;;;4.62;61.03;99928.59;1728919;82;21014;-60
2021/04/28 01:15:34;;;;;;;7.15;5.03;;;;;;;4.64;60.96;99929.21;1719534;83;21119;-57
2021/04/28 01:18:22;;;;;;;8.90;5.27;;;;;;;4.67;60.82;99926.63;1847760;76;22771;-59
2021/04/28 01:20:51;;;;;;;7.80;5.70;;;;;;;4.64;60.70;99929.72;1766887;80;21014;-58
2021/04/28 01:23:21;;;;;;;7.97;5.00;;;;;;;4.62;60.64;99929.09;1756650;80;21155;-59
2021/04/28 01:25:50;;;;;;;6.03;5.12;;;;;;;4.61;60.55;99927.45;1757745;79;21043;-60
2021/04/28 01:28:24;;;;;;;8.95;5.47;;;;;;;4.60;60.44;99924.50;1788285;78;21007;-58
2021/04/28 01:31:06;;;;;;;6.08;4.87;;;;;;;4.59;60.33;99929.00;1754206;80;21192;-59
2021/04/28 01:33:41;;;;;;;7.15;5.15;;;;;;;4.57;60.20;99927.05;1754233;80;21173;-59
2021/04/28 01:36:15;;;;;;;10.18;5.35;;;;;;;4.55;60.08;99925.63;1800052;79;20999;-59
2021/04/28 01:38:47;;;;;;;7.45;5.15;;;;;;;4.53;59.98;99927.66;1817151;78;21567;-60
2021/04/28 01:41:15;;;;;;;6.85;5.50;;;;;;;4.49;59.88;99924.59;1792045;79;20943;-60
2021/04/28 01:43:44;;;;;;;8.85;5.35;;;;;;;4.49;59.86;99929.10;1785101;79;21157;-59
2021/04/28 01:46:12;;;;;;;8.43;5.35;;;;;;;4.47;59.83;99923.14;1754288;80;21168;-58
2021/04/28 01:48:43;;;;;;;9.35;5.62;;;;;;;4.45;59.79;99923.38;1785017;79;20980;-60
2021/04/28 01:51:13;;;;;;;8.75;6.80;;;;;;;4.46;59.74;99922.86;1754167;80;21184;-62
2021/04/28 01:53:42;;;;;;;9.05;6.58;;;;;;;4.46;59.70;99926.32;1754450;80;21598;-60
2021/04/28 01:56:10;;;;;;;6.75;4.58;;;;;;;4.46;59.65;99928.19;1785052;80;21187;-59
2021/04/28 01:58:57;;;;;;;11.95;6.00;;;;;;;4.44;59.54;99928.38;1785521;79;21137;-60
2021/04/28 02:01:27;;;;;;;10.78;6.85;;;;;;;4.44;59.46;99926.23;1778811;79;22301;-59
2021/04/28 02:03:56;;;;;;;9.90;5.03;;;;;;;4.41;59.41;99928.80;1784961;79;21129;-59
2021/04/28 02:06:25;;;;;;;9.25;5.70;;;;;;;4.38;59.42;99934.01;1784926;79;21176;-58
2021/04/28 02:08:53;;;;;;;8.75;5.80;;;;;;;4.38;59.35;99930.52;1754215;80;21160;-61
2021/04/28 02:11:22;;;;;;;8.53;5.87;;;;;;;4.38;59.21;99930.02;1807623;79;21003;-59
2021/04/28 02:13:51;;;;;;;7.15;5.80;;;;;;;4.41;58.91;99930.64;1817120;78;22735;-59
2021/04/28 02:16:38;;;;;;;8.93;5.63;;;;;;;4.45;58.51;99926.55;1883473;76;22715;-59
2021/04/28 02:19:07;;;;;;;6.30;4.70;;;;;;;4.38;58.18;99931.34;1747860;80;20963;-64
2021/04/28 02:21:42;;;;;;;7.67;6.65;;;;;;;4.39;57.83;99925.52;1821060;77;21061;-59
2021/04/28 02:24:17;;;;;;;7.62;5.45;;;;;;;4.38;57.60;99927.86;1840847;77;21022;-59
2021/04/28 02:26:46;;;;;;;5.75;5.03;;;;;;;4.38;57.24;99934.01;1820991;78;20983;-59
2021/04/28 02:29:15;;;;;;;5.92;5.03;;;;;;;4.38;56.98;99937.18;1827258;77;21543;-59
2021/04/28 02:31:43;;;;;;;9.83;4.72;;;;;;;4.38;56.56;99939.33;1821519;77;21535;-59
2021/04/28 02:34:12;;;;;;;7.20;5.35;;;;;;;4.37;56.38;99938.20;1788930;78;22114;-60
2021/04/28 02:36:49;;;;;;;6.97;4.97;;;;;;;4.38;56.06;99942.50;1720304;82;21040;-58
2021/04/28 02:39:43;;;;;;;8.95;6.22;;;;;;;4.38;55.74;99944.66;1806767;77;20928;-58
2021/04/28 02:42:11;;;;;;;6.22;4.65;;;;;;;4.37;54.97;99945.67;1813840;77;21181;-60
2021/04/28 02:44:39;;;;;;;6.50;4.33;;;;;;;4.37;54.34;99947.52;1816538;77;21160;-59
2021/04/28 02:47:09;;;;;;;9.13;4.58;;;;;;;4.37;53.97;99945.67;1797260;77;21201;-59
2021/04/28 02:49:40;;;;;;;4.92;4.05;;;;;;;4.38;53.71;99953.16;1820817;78;21621;-58
2021/04/28 02:52:13;;;;;;;6.85;4.92;;;;;;;4.37;53.49;99951.00;1744324;78;20978;-59
2021/04/28 02:54:49;;;;;;;6.80;4.67;;;;;;;4.39;53.34;99958.80;1819134;77;21014;-59
2021/04/28 02:57:20;;;;;;;9.68;4.92;;;;;;;4.39;53.22;99954.80;1787670;79;21207;-59
2021/04/28 02:59:49;;;;;;;6.75;4.25;;;;;;;4.38;53.32;99952.65;1751550;80;21478;-59
2021/04/28 03:02:18;;;;;;;7.50;4.72;;;;;;;4.38;53.56;99955.31;1710299;82;21176;-59
2021/04/28 03:04:49;;;;;;;5.92;3.75;;;;;;;4.41;53.83;99954.09;1772697;80;21031;-58
2021/04/28 03:07:18;;;;;;;9.45;4.03;;;;;;;4.42;53.88;99955.72;1761056;78;21137;-60
2021/04/28 03:09:46;;;;;;;4.42;3.95;;;;;;;4.43;53.86;99960.02;1804120;78;21160;-59
2021/04/28 03:12:15;;;;;;;10.90;4.60;;;;;;;4.43;53.82;99958.69;1750855;80;21160;-62
2021/04/28 03:14:45;;;;;;;4.97;3.62;;;;;;;4.44;53.74;99959.00;1788148;78;21599;-59
2021/04/28 03:17:13;;;;;;;8.05;5.03;;;;;;;4.46;53.82;99962.81;1779378;80;21187;-59
2021/04/28 03:19:42;;;;;;;7.67;4.87;;;;;;;4.46;53.77;99968.13;1781864;80;21207;-59
2021/04/28 03:22:09;;;;;;;8.35;5.53;;;;;;;4.47;53.84;99962.58;1726296;80;21121;-59
2021/04/28 03:24:37;;;;;;;7.50;4.97;;;;;;;4.49;54.00;99972.53;1782123;80;21418;-58
2021/04/28 03:27:11;;;;;;;8.63;5.15;;;;;;;4.49;54.54;99972.53;1805930;78;21117;-63
2021/04/28 03:29:41;;;;;;;6.33;5.05;;;;;;;4.50;54.54;99977.35;1803395;78;21578;-61
2021/04/28 03:32:10;;;;;;;8.88;5.40;;;;;;;4.52;54.95;99977.95;1779035;78;21136;-59
2021/04/28 03:34:42;;;;;;;6.42;4.62;;;;;;;4.51;54.91;99978.45;1750411;81;21214;-59
2021/04/28 03:37:11;;;;;;;7.08;5.42;;;;;;;4.51;54.75;99987.78;1711805;82;21163;-58
2021/04/28 03:39:51;;;;;;;7.77;6.20;;;;;;;4.56;54.91;99981.84;1847223;76;22701;-58
2021/04/28 03:42:22;;;;;;;6.75;4.92;;;;;;;4.52;55.03;99989.42;1785359;79;21022;-60
2021/04/28 03:44:51;;;;;;;9.05;5.95;;;;;;;4.54;55.54;99987.91;1817170;79;21193;-60
2021/04/28 03:47:19;;;;;;;8.60;5.53;;;;;;;4.55;55.88;99989.55;1782538;79;21118;-57
2021/04/28 03:49:48;;;;;;;8.80;6.45;;;;;;;4.56;56.03;99985.84;1785557;79;20983;-60
2021/04/28 03:52:16;;;;;;;7.58;5.50;;;;;;;4.57;56.30;99997.62;1754231;80;21002;-59
2021/04/28 03:54:47;;;;;;;8.88;6.03;;;;;;;4.56;56.17;99992.50;1756259;80;21188;-59
2021/04/28 03:57:15;;;;;;;8.93;5.65;;;;;;;4.56;56.07;99999.16;1765544;79;21015;-60
2021/04/28 03:59:42;;;;;;;5.85;5.12;;;;;;;4.57;56.01;100004.80;1749523;80;21086;-59
2021/04/28 04:02:11;;;;;;;10.82;6.25;;;;;;;4.57;55.81;100006.13;1779977;80;20979;-61
2021/04/28 04:04:59;;;;;;;8.40;5.35;;;;;;;4.56;55.84;100003.97;1783332;80;21130;-61
2021/04/28 04:07:46;;;;;;;7.12;4.87;;;;;;;4.57;55.74;100011.45;1771353;79;21445;-60
2021/04/28 04:10:27;;;;;;;7.93;5.60;;;;;;;4.62;55.67;100011.16;1836998;76;23277;-60
2021/04/28 04:12:55;;;;;;;4.87;4.35;;;;;;;4.58;55.72;100014.44;1785197;79;21037;-58
2021/04/28 04:15:23;;;;;;;6.50;5.37;;;;;;;4.58;55.75;100021.09;1770848;79;21100;-59
2021/04/28 04:17:52;;;;;;;6.17;4.53;;;;;;;4.59;55.70;100020.08;1792723;79;22023;-59
2021/04/28 04:20:22;;;;;;;7.30;5.00;;;;;;;4.61;55.81;100026.83;1798715;79;21023;-60
2021/04/28 04:22:52;;;;;;;11.25;5.35;;;;;;;4.63;55.79;100025.30;1797991;79;21003;-58
2021/04/28 04:25:21;;;;;;;6.15;5.00;;;;;;;4.65;55.71;100028.05;1797837;79;21018;-59
2021/04/28 04:27:50;;;;;;;8.95;5.10;;;;;;;4.67;55.67;100028.69;1794027;79;21192;-60
2021/04/28 04:30:22;;;;;;;9.63;5.33;;;;;;;4.71;55.54;100035.75;1707884;82;21010;-59
2021/04/28 04:33:05;;;;;;;6.80;5.42;;;;;;;4.74;55.49;100040.19;1750455;82;21021;-60
2021/04/28 04:35:51;;;;;;;8.33;4.42;;;;;;;4.78;55.34;100040.09;1718890;83;21628;-58
2021/04/28 04:38:29;;;;;;;7.15;4.75;;;;;;;4.82;55.06;100038.65;1751078;81;21220;-60
2021/04/28 04:40:59;;;;;;;7.15;4.15;;;;;;;4.87;54.90;100039.37;1731998;81;21654;-60
2021/04/28 04:43:32;;;;;;;6.65;5.20;;;;;;;4.91;54.75;100035.77;1731755;81;21173;-61
2021/04/28 04:46:02;;;;;;;6.67;4.95;;;;;;;4.94;54.64;100042.84;1812439;79;21010;-58
2021/04/28 04:48:30;;;;;;;6.95;4.70;;;;;;;5.00;54.64;100046.03;1761890;80;21155;-58
2021/04/28 04:50:58;;;;;;;7.85;4.55;;;;;;;5.04;54.14;100045.92;1675472;82;21208;-59
2021/04/28 04:53:25;;;;;;;7.20;4.15;;;;;;;5.10;54.10;100049.11;1750650;82;21171;-59
2021/04/28 04:55:54;;;;;;;3.77;3.20;;;;;;;5.16;54.06;100055.47;1720695;82;21155;-59
2021/04/28 04:58:23;;;;;;;5.67;4.33;;;;;;;5.22;53.92;100057.31;1736346;81;21185;-59
2021/04/28 05:00:50;;;;;;;5.70;3.20;;;;;;;5.27;53.72;100058.31;1710282;82;21180;-60
2021/04/28 05:03:18;;;;;;;5.35;3.70;;;;;;;5.34;53.36;100062.32;1658672;85;21053;-60
2021/04/28 05:05:45;;;;;;;5.33;4.00;;;;;;;5.40;53.36;100062.02;1702843;84;23433;-60
2021/04/28 05:08:14;;;;;;;7.40;3.70;;;;;;;5.46;53.15;100066.52;1773004;80;21040;-60
2021/04/28 05:10:42;;;;;;;6.80;3.37;;;;;;;5.52;52.99;100066.50;1767989;80;21202;-60
2021/04/28 05:13:10;;;;;;;3.85;3.10;;;;;;;5.58;52.81;100067.01;1726263;80;21144;-60
2021/04/28 05:15:38;;;;;;;6.55;3.75;;;;;;;5.65;52.43;100065.16;1713884;81;21195;-59
2021/04/28 05:18:06;;;;;;;4.25;3.20;;;;;;;5.74;52.17;100067.59;1763165;80;21193;-60
2021/04/28 05:20:34;;;;;;;4.17;2.90;;;;;;;5.80;52.11;100075.59;1706069;82;21138;-60
2021/04/28 05:23:02;;;;;;;3.83;2.87;;;;;;;5.85;51.73;100075.77;1749018;82;21165;-59
2021/04/28 05:25:33;;;;;;;3.02;2.60;;;;;;;5.93;51.65;100080.09;1731089;82;21707;-59
2021/04/28 05:28:01;;;;;;;3.65;2.42;;;;;;;6.05;50.84;100081.89;1764868;80;21185;-59
2021/04/28 05:30:29;;;;;;;4.12;2.47;;;;;;;6.05;50.84;100081.89;1735326;81;21975;-61
2021/04/28 05:32:57;;;;;;;3.25;2.90;;;;;;;6.13;50.18;100087.53;1755952;80;21038;-59
2021/04/28 05:35:25;;;;;;;6.25;2.30;;;;;;;6.20;50.17;100090.16;1731197;82;21202;-59
2021/04/28 05:37:52;;;;;;;1.80;1.47;;;;;;;6.26;49.75;100091.48;1705968;82;21226;-58
2021/04/28 05:40:21;;;;;;;5.10;2.47;;;;;;;6.38;47.66;100094.32;1731176;82;21127;-58
2021/04/28 05:42:49;;;;;;;2.27;1.62;;;;;;;6.38;47.66;100094.32;1706433;82;21497;-58
2021/04/28 05:45:17;;;;;;;2.58;2.00;;;;;;;6.44;47.43;100095.60;1705976;82;21207;-57
2021/04/28 05:47:45;;;;;;;2.40;1.85;;;;;;;6.46;46.82;100094.89;1702057;82;21129;-60
2021/04/28 05:50:15;;;;;;;5.60;2.33;;;;;;;6.54;46.95;100101.83;1700780;82;21182;-59
2021/04/28 05:52:43;;;;;;;3.20;1.90;;;;;;;6.60;47.49;100100.16;1775090;80;21153;-58
2021/04/28 05:55:12;;;;;;;2.72;2.40;;;;;;;6.67;47.29;100107.61;1761309;81;21192;-60
2021/04/28 05:57:40;;;;;;;5.62;1.80;;;;;;;6.71;45.84;100103.50;1755625;80;21745;-60
2021/04/28 06:00:13;;;;;;;4.42;2.20;;;;;;;6.76;45.62;100108.48;1735314;81;21048;-59
2021/04/28 06:02:42;;;;;;;4.58;2.30;;;;;;;6.82;45.80;100108.14;1757985;80;21053;-59
2021/04/28 06:05:13;;;;;;;3.52;2.08;;;;;;;6.89;45.29;100113.77;1705995;82;21162;-58
2021/04/28 06:07:42;;;;;;;4.22;2.90;;;;;;;6.94;44.74;100115.28;1725505;82;21125;-59
2021/04/28 06:10:13;;;;;;;3.05;1.95;;;;;;;7.00;43.78;100115.73;1682699;84;21212;-60
2021/04/28 06:12:44;;;;;;;1.87;1.77;;;;;;;7.05;43.42;100116.41;1686577;82;21022;-60
2021/04/28 06:15:14;;;;;;;4.08;1.85;;;;;;;7.10;43.04;100119.26;1754462;80;21046;-59
2021/04/28 06:17:42;;;;;;;5.03;1.60;;;;;;;7.15;43.20;100114.59;1784317;80;21164;-60
2021/04/28 06:20:14;;;;;;;3.52;1.80;;;;;;;7.19;43.20;100117.17;1756145;80;21141;-59
2021/04/28 06:22:42;;;;;;;2.27;1.98;;;;;;;7.23;42.86;100121.05;1700023;81;21586;-59
2021/04/28 06:25:13;;;;;;;2.25;1.98;;;;;;;7.30;42.80;100120.45;1753442;81;21602;-59
2021/04/28 06:27:41;;;;;;;1.95;1.70;;;;;;;7.33;42.89;100116.84;1726239;81;21074;-58
2021/04/28 06:30:10;;;;;;;1.42;1.32;;;;;;;7.38;42.84;100126.38;1753227;81;21129;-59
2021/04/28 06:32:38;;;;;;;1.90;1.47;;;;;;;7.44;43.03;100127.34;1778246;80;21200;-59
2021/04/28 06:35:06;;;;;;;1.70;1.55;;;;;;;7.49;43.09;100121.33;1781018;80;21129;-60
2021/04/28 06:37:36;;;;;;;2.10;1.65;;;;;;;7.54;42.79;100124.16;1784398;80;21194;-58
2021/04/28 06:40:07;;;;;;;1.80;1.62;;;;;;;7.59;42.84;100120.31;1750587;80;21035;-60
2021/04/28 06:42:34;;;;;;;5.22;1.70;;;;;;;7.64;42.55;100123.98;1728052;81;21591;-59
2021/04/28 06:45:05;;;;;;;4.83;2.30;;;;;;;7.70;42.33;100131.65;1720501;82;22382;-61
2021/04/28 06:47:32;;;;;;;2.55;2.35;;;;;;;7.73;41.99;100129.34;1704843;84;21144;-60
2021/04/28 06:50:03;;;;;;;7.25;2.35;;;;;;;7.78;42.07;100138.87;1702814;82;21236;-59
2021/04/28 06:52:31;;;;;;;3.92;1.85;;;;;;;7.83;42.25;100128.84;1674818;84;21164;-60
2021/04/28 06:54:58;;;;;;;2.50;2.05;;;;;;;7.89;42.30;100127.45;1704877;84;21200;-59
2021/04/28 06:57:28;;;;;;;4.80;2.05;;;;;;;7.99;42.31;100133.62;1705133;82;22208;-59
2021/04/28 06:59:56;;;;;;;7.60;2.08;;;;;;;8.06;42.18;100130.34;1731527;82;21034;-61
2021/04/28 07:02:24;;;;;;;8.93;3.10;;;;;;;8.14;42.21;100129.25;1784319;80;21156;-61
2021/04/28 07:04:52;;;;;;;3.10;2.10;;;;;;;8.18;42.24;100138.47;1753959;80;21220;-59
2021/04/28 07:07:19;;;;;;;2.72;1.57;;;;;;;8.24;41.29;100143.77;1781493;80;21077;-58
2021/04/28 07:09:50;;;;;;;3.65;2.02;;;;;;;8.26;40.79;100136.83;1777451;80;21793;-58
2021/04/28 07:12:17;;;;;;;3.15;2.10;;;;;;;8.26;41.19;100132.29;1748936;82;21135;-60
2021/04/28 07:14:46;;;;;;;4.30;2.22;;;;;;;8.30;41.09;100139.38;1749070;80;21141;-60
2021/04/28 07:17:13;;;;;;;1.92;1.70;;;;;;;8.36;40.18;100154.58;1725408;82;21181;-60
2021/04/28 07:19:43;;;;;;;1.92;1.60;;;;;;;8.40;39.77;100149.06;1711209;82;21145;-60
2021/04/28 07:22:10;;;;;;;16.90;12.98;;;;;;;8.42;39.57;100148.84;1776553;80;21213;-61
2021/04/28 07:24:40;;;;;;;7.22;2.10;;;;;;;8.44;39.44;100156.16;1760394;81;21184;-60
2021/04/28 07:27:08;;;;;;;5.15;2.05;;;;;;;8.44;39.13;100153.47;1731065;82;21213;-61
2021/04/28 07:29:36;;;;;;;2.83;1.95;;;;;;;8.44;39.20;100159.63;1731045;82;21151;-60
2021/04/28 07:32:05;;;;;;;2.60;2.08;;;;;;;8.47;39.17;100154.35;1731047;82;21620;-59
2021/04/28 07:34:34;;;;;;;3.25;1.90;;;;;;;8.49;39.05;100149.05;1730276;82;22291;-59
2021/04/28 07:37:04;;;;;;;4.53;1.95;;;;;;;8.53;39.17;100142.22;1755423;80;21623;-61
2021/04/28 07:39:31;;;;;;;4.05;2.17;;;;;;;8.57;39.28;100143.92;1736609;81;21175;-61
2021/04/28 07:41:59;;;;;;;2.00;1.82;;;;;;;8.62;38.93;100134.16;1725330;82;21192;-61
2021/04/28 07:44:30;;;;;;;2.67;2.20;;;;;;;8.66;38.86;100144.73;1727600;81;21156;-62
2021/04/28 07:46:58;;;;;;;3.52;1.70;;;;;;;8.70;38.36;100143.74;1750094;81;21160;-59
2021/04/28 07:49:26;;;;;;;2.75;1.95;;;;;;;8.73;38.26;100143.28;1742724;81;20997;-60
2021/04/28 07:51:54;;;;;;;3.05;2.27;;;;;;;8.75;37.57;100147.91;1748883;82;21118;-60
2021/04/28 07:54:25;;;;;;;3.08;2.50;;;;;;;8.80;37.95;100141.34;1705718;82;21198;-59
2021/04/28 07:56:52;;;;;;;5.00;3.52;;;;;;;8.84;37.71;100151.91;1748883;82;21221;-61
2021/04/28 07:59:21;;;;;;;6.10;2.80;;;;;;;8.85;37.53;100141.48;1730817;81;21710;-60
2021/04/28 08:01:50;;;;;;;2.95;2.65;;;;;;;8.89;37.52;100147.20;1755263;80;21192;-60
2021/04/28 08:04:20;;;;;;;4.37;2.80;;;;;;;8.92;37.47;100146.77;1737683;81;21131;-59
2021/04/28 08:06:48;;;;;;;5.35;3.37;;;;;;;8.97;36.68;100138.85;1748861;82;21007;-61
2021/04/28 08:09:16;;;;;;;9.00;5.00;;;;;;;8.99;37.32;100134.06;1705829;82;21786;-59
2021/04/28 08:11:44;;;;;;;3.50;3.20;;;;;;;9.03;37.43;100134.71;1727341;81;22594;-62
2021/04/28 08:14:15;;;;;;;3.85;2.90;;;;;;;9.09;37.54;100141.03;1725409;81;21135;-63
2021/04/28 08:16:43;;;;;;;7.67;3.45;;;;;;;9.16;37.05;100142.56;1712647;83;21211;-60
2021/04/28 08:19:12;;;;;;;5.20;3.33;;;;;;;9.24;37.14;100138.75;1713184;82;21145;-59
2021/04/28 08:21:40;;;;;;;7.97;3.40;;;;;;;9.30;36.99;100138.36;1697535;82;21077;-59
2021/04/28 08:24:11;;;;;;;5.47;4.33;;;;;;;9.30;36.80;100135.16;1731335;80;21200;-59
2021/04/28 08:26:40;;;;;;;7.00;3.35;;;;;;;9.31;37.28;100127.37;1744634;81;21192;-59
2021/04/28 08:29:10;;;;;;;5.30;3.87;;;;;;;9.38;37.02;100133.98;1724893;83;21171;-60
2021/04/28 08:31:38;;;;;;;4.95;4.00;;;;;;;9.43;37.26;100138.95;1712605;83;21168;-60
2021/04/28 08:34:07;;;;;;;4.00;3.50;;;;;;;9.51;37.34;100129.73;1725247;83;21139;-60
2021/04/28 08:36:35;;;;;;;3.92;3.40;;;;;;;9.57;37.21;100134.19;1685980;82;21255;-60
2021/04/28 08:39:07;;;;;;;6.83;4.30;;;;;;;9.63;37.32;100141.32;1740954;82;21632;-59
2021/04/28 08:41:36;;;;;;;15.00;4.87;;;;;;;9.63;37.21;100132.74;1787194;80;21547;-60
2021/04/28 08:44:06;;;;;;;7.78;4.70;;;;;;;9.67;37.22;100135.77;1772715;80;21026;-59
2021/04/28 08:46:38;;;;;;;5.45;3.60;;;;;;;9.73;37.04;100127.31;1756188;81;21570;-60
2021/04/28 08:49:05;;;;;;;14.10;5.10;;;;;;;9.81;37.54;100128.30;1723251;83;21377;-61
2021/04/28 08:51:37;;;;;;;6.12;4.00;;;;;;;9.92;37.25;100123.45;1712487;83;21101;-58
2021/04/28 08:54:06;;;;;;;7.17;3.85;;;;;;;10.04;37.27;100120.21;1725335;83;21146;-60
2021/04/28 08:56:35;;;;;;;8.80;5.08;;;;;;;10.10;36.69;100122.48;1686084;83;21632;-60
2021/04/28 08:59:07;;;;;;;8.45;4.33;;;;;;;10.14;36.85;100120.95;1682933;83;21170;-60
2021/04/28 09:01:37;;;;;;;10.53;4.12;;;;;;;10.25;37.17;100120.98;1696126;83;21197;-59
2021/04/28 09:04:16;;;;;;;6.08;4.30;;;;;;;10.37;36.20;100108.84;1705031;82;21211;-59
2021/04/28 09:06:45;;;;;;;6.97;4.28;;;;;;;10.48;36.04;100122.27;1740303;82;21641;-60
2021/04/28 09:09:16;;;;;;;6.15;4.03;;;;;;;10.56;35.72;100114.33;1760709;80;21204;-60
2021/04/28 09:11:53;;;;;;;6.53;3.72;;;;;;;10.64;35.40;100107.77;1779511;80;21180;-60
2021/04/28 09:14:28;;;;;;;8.38;4.37;;;;;;;10.69;35.04;100119.45;1750517;80;21149;-60
2021/04/28 09:17:00;;;;;;;8.08;5.08;;;;;;;10.66;34.60;100114.53;1784295;80;21158;-59
2021/04/28 09:19:55;;;;;;;14.95;5.45;;;;;;;10.74;34.73;100118.73;1878739;74;28717;-60
2021/04/28 09:22:32;;;;;;;;;;;;;;;10.71;33.71;100113.81;1770816;80;21036;-60
2021/04/28 09:25:35;;;;;;;10.70;3.98;;;;;;;10.66;34.10;100107.80;1751080;80;22554;-64
2021/04/28 09:28:30;;;;;;;5.60;4.10;;;;;;;10.70;34.08;100105.45;1788028;79;21177;-62
2021/04/28 09:31:14;;;;;;;7.33;4.17;;;;;;;10.67;33.89;100104.06;1797367;79;20974;-61
2021/04/28 09:33:53;;;;;;;10.90;4.35;;;;;;;10.74;33.79;100110.66;1800603;79;21006;-62
2021/04/28 09:36:32;;;;;;;5.58;3.42;;;;;;;10.83;33.81;100108.69;1772098;80;20969;-62
2021/04/28 09:39:09;;;;;;;11.30;4.35;;;;;;;10.93;33.56;100107.50;1757048;79;21978;-61
2021/04/28 09:41:44;;;;;;;6.75;4.15;;;;;;;11.03;33.20;100112.25;1755324;80;21431;-63
2021/04/28 09:44:29;;;;;;;6.22;3.90;;;;;;;11.12;33.33;100120.77;1790256;80;21002;-62
2021/04/28 09:47:22;;;;;;;13.28;4.80;;;;;;;11.09;32.39;100109.94;1757727;80;21020;-63
2021/04/28 09:50:01;;;;;;;7.53;3.90;;;;;;;11.10;32.85;100108.89;1790113;80;21580;-62
2021/04/28 09:52:36;;;;;;;5.42;4.00;;;;;;;11.18;32.78;100101.75;1757747;80;21980;-61
2021/04/28 09:55:12;;;;;;;19.75;4.70;;;;;;;11.20;32.54;100105.02;1758857;80;21683;-62
2021/04/28 09:57:45;;;;;;;9.60;4.15;;;;;;;11.22;32.63;100096.71;1820860;78;21212;-63
2021/04/28 10:00:24;;;;;;;5.30;3.92;;;;;;;11.24;32.85;100098.09;1826554;76;21544;-62
2021/04/28 10:03:07;;;;;;;9.88;4.47;;;;;;;11.30;32.64;100097.65;1816461;78;21160;-62
2021/04/28 10:05:37;;;;;;;6.70;3.98;;;;;;;11.32;32.36;100088.25;1768992;80;21565;-61
2021/04/28 10:08:16;;;;;;;7.83;3.77;;;;;;;11.37;31.92;100091.02;1774223;79;21224;-60
2021/04/28 10:10:44;;;;;;;10.48;3.72;;;;;;;11.45;31.86;100092.51;1741603;81;21230;-62
2021/04/28 10:13:13;;;;;;;7.60;4.17;;;;;;;11.55;30.97;100104.79;1770278;81;21132;-63
2021/04/28 10:15:40;;;;;;;7.85;3.67;;;;;;;11.59;30.71;100090.29;1770200;79;21478;-62
2021/04/28 10:18:10;;;;;;;5.58;3.27;;;;;;;11.62;30.92;100093.30;1715959;80;21189;-63
2021/04/28 10:20:41;;;;;;;8.13;3.90;;;;;;;11.72;30.83;100088.59;1723640;83;21668;-62
2021/04/28 10:23:14;;;;;;;9.20;4.55;;;;;;;11.87;30.55;100089.38;1728908;81;21022;-65
2021/04/28 10:25:48;;;;;;;5.37;3.75;;;;;;;11.99;30.49;100089.53;1707437;82;21188;-64
2021/04/28 10:28:18;;;;;;;16.25;3.83;;;;;;;12.02;30.41;100083.67;1733561;82;21112;-62
2021/04/28 10:30:48;;;;;;;10.48;4.30;;;;;;;11.99;30.21;100082.80;1732715;81;22265;-61
2021/04/28 10:33:21;;;;;;;10.65;4.47;;;;;;;11.93;30.67;100073.56;1727063;81;21204;-62
2021/04/28 10:35:50;;;;;;;10.28;4.97;;;;;;;11.99;30.96;100069.31;1732354;82;21213;-60
2021/04/28 10:38:22;;;;;;;7.42;4.20;;;;;;;12.15;30.98;100079.25;1703983;82;21156;-60
2021/04/28 10:40:50;;;;;;;8.48;4.03;;;;;;;12.31;30.81;100079.44;1762846;81;21118;-62
2021/04/28 10:43:20;;;;;;;7.62;4.20;;;;;;;12.45;30.93;100082.03;1732863;81;22208;-61
2021/04/28 10:45:48;;;;;;;6.25;3.65;;;;;;;12.54;30.41;100075.94;1762619;81;21145;-61
2021/04/28 10:48:21;;;;;;;7.78;3.80;;;;;;;12.58;30.63;100077.05;1747651;81;21136;-64
2021/04/28 10:50:49;;;;;;;14.07;4.75;;;;;;;12.72;30.14;100073.42;1744290;82;21587;-61
2021/04/28 10:53:27;;;;;;;7.00;4.25;;;;;;;12.86;29.90;100072.47;1707711;82;21183;-60
2021/04/28 10:56:08;;;;;;;5.53;3.87;;;;;;;12.73;29.80;100059.39;1720569;82;22650;-62
2021/04/28 10:58:40;;;;;;;5.33;2.85;;;;;;;12.65;30.07;100060.15;1720088;81;21687;-62
2021/04/28 11:01:16;;;;;;;5.70;4.12;;;;;;;12.69;29.73;100051.00;1735909;81;21199;-61
2021/04/28 11:03:52;;;;;;;6.58;4.30;;;;;;;12.76;29.74;100048.89;1724736;82;21656;-60
2021/04/28 11:06:26;;;;;;;8.88;4.25;;;;;;;12.88;29.79;100056.31;1720648;82;21221;-60
2021/04/28 11:09:07;;;;;;;5.35;3.98;;;;;;;13.03;29.67;100051.59;1730298;81;21169;-61
2021/04/28 11:11:41;;;;;;;12.70;3.92;;;;;;;13.06;29.45;100047.02;1732416;82;21065;-60
2021/04/28 11:14:21;;;;;;;8.13;4.03;;;;;;;13.20;29.51;100060.92;1728118;83;27284;-60
2021/04/28 11:17:04;;;;;;;8.45;4.17;;;;;;;13.29;29.33;100056.14;1755193;81;21188;-65
2021/04/28 11:19:38;;;;;;;9.20;3.85;;;;;;;13.36;29.07;100054.05;1727431;81;21587;-62
2021/04/28 11:22:21;;;;;;;4.10;3.30;;;;;;;13.37;28.55;100048.11;1707520;82;21997;-63
2021/04/28 11:25:07;;;;;;;5.58;3.90;;;;;;;13.31;28.87;100046.44;1701332;83;21176;-65
2021/04/28 11:27:58;;;;;;;14.30;4.08;;;;;;;13.31;28.79;100036.98;1706825;82;21185;-63
2021/04/28 11:30:45;;;;;;;8.93;3.95;;;;;;;13.35;28.62;100044.31;1707957;81;21051;-65
2021/04/28 11:33:30;;;;;;;7.40;3.67;;;;;;;13.40;28.97;100038.13;1732203;81;21168;-60
2021/04/28 11:36:08;;;;;;;7.85;3.67;;;;;;;13.44;28.62;100038.70;1726055;82;21855;-60
2021/04/28 11:38:39;;;;;;;7.62;3.60;;;;;;;13.51;28.90;100029.02;1732841;81;21083;-60
2021/04/28 11:41:15;;;;;;;7.28;3.87;;;;;;;13.63;29.08;100024.22;1743058;80;21002;-61
2021/04/28 11:43:47;;;;;;;10.20;4.55;;;;;;;13.68;28.10;100025.60;1742840;82;21053;-62
2021/04/28 11:46:18;;;;;;;4.97;3.55;;;;;;;13.75;28.85;100024.02;1717231;82;21168;-62
2021/04/28 11:48:53;;;;;;;4.15;3.10;;;;;;;13.95;28.00;100026.84;1728375;80;21999;-61
2021/04/28 11:51:27;;;;;;;3.98;2.90;;;;;;;14.10;27.79;100017.97;1744137;81;21506;-62
2021/04/28 11:53:59;;;;;;;4.47;4.08;;;;;;;14.22;27.77;100022.60;1736939;82;21113;-60